sensor_id;sensor_type;location;lat;lon;timestamp;temperature;humidity
34815;DHT22;21030;53.912;15.214;2023-02-24T00:01:50;29.10;26.10
34815;DHT22;21030;53.912;15.214;2023-02-24T00:04:19;28.40;26.20
34815;DHT22;21030;53.912;15.214;2023-02-24T00:06:47;28.10;26.30
34815;DHT22;21030;53.912;15.214;2023-02-24T00:09:19;28.60;26.20
34815;DHT22;21030;53.912;15.214;2023-02-24T00:11:55;28.50;26.10
34815;DHT22;21030;53.912;15.214;2023-02-24T00:14:25;29.20;25.70
34815;DHT22;21030;53.912;15.214;2023-02-24T00:16:52;29.40;25.50
34815;DHT22;21030;53.912;15.214;2023-02-24T00:19:22;30.10;25.00
34815;DHT22;21030;53.912;15.214;2023-02-24T00:21:50;29.90;24.50
34815;DHT22;21030;53.912;15.214;2023-02-24T00:24:21;30.30;24.50
34815;DHT22;21030;53.912;15.214;2023-02-24T00:26:57;30.10;24.60
34815;DHT22;21030;53.912;15.214;2023-02-24T00:29:27;30.40;24.50
34815;DHT22;21030;53.912;15.214;2023-02-24T00:31:58;30.10;24.40
34815;DHT22;21030;53.912;15.214;2023-02-24T00:34:30;30.20;24.50
34815;DHT22;21030;53.912;15.214;2023-02-24T00:36:58;29.90;24.70
34815;DHT22;21030;53.912;15.214;2023-02-24T00:39:26;29.30;24.60
34815;DHT22;21030;53.912;15.214;2023-02-24T00:41:56;29.50;25.10
34815;DHT22;21030;53.912;15.214;2023-02-24T00:44:44;28.80;25.30
34815;DHT22;21030;53.912;15.214;2023-02-24T00:47:11;28.00;25.40
34815;DHT22;21030;53.912;15.214;2023-02-24T00:49:40;27.70;26.10
34815;DHT22;21030;53.912;15.214;2023-02-24T00:52:18;27.40;26.40
34815;DHT22;21030;53.912;15.214;2023-02-24T00:54:48;27.70;26.50
34815;DHT22;21030;53.912;15.214;2023-02-24T00:57:16;28.10;25.90
34815;DHT22;21030;53.912;15.214;2023-02-24T00:59:46;28.30;25.70
34815;DHT22;21030;53.912;15.214;2023-02-24T01:02:13;28.50;25.50
34815;DHT22;21030;53.912;15.214;2023-02-24T01:04:41;27.90;25.70
34815;DHT22;21030;53.912;15.214;2023-02-24T01:07:10;27.80;26.20
34815;DHT22;21030;53.912;15.214;2023-02-24T01:09:39;27.90;26.10
34815;DHT22;21030;53.912;15.214;2023-02-24T01:12:09;28.90;25.30
34815;DHT22;21030;53.912;15.214;2023-02-24T01:14:49;29.50;25.50
34815;DHT22;21030;53.912;15.214;2023-02-24T01:17:18;29.10;24.90
34815;DHT22;21030;53.912;15.214;2023-02-24T01:19:46;29.70;25.10
34815;DHT22;21030;53.912;15.214;2023-02-24T01:22:17;30.20;24.60
34815;DHT22;21030;53.912;15.214;2023-02-24T01:24:46;29.40;24.20
34815;DHT22;21030;53.912;15.214;2023-02-24T01:27:14;29.20;25.00
34815;DHT22;21030;53.912;15.214;2023-02-24T01:29:48;29.90;24.50
34815;DHT22;21030;53.912;15.214;2023-02-24T01:32:17;28.90;24.50
34815;DHT22;21030;53.912;15.214;2023-02-24T01:34:46;28.50;25.00
34815;DHT22;21030;53.912;15.214;2023-02-24T01:37:13;28.70;25.00
34815;DHT22;21030;53.912;15.214;2023-02-24T01:39:45;28.90;25.30
34815;DHT22;21030;53.912;15.214;2023-02-24T01:42:19;28.30;24.30
34815;DHT22;21030;53.912;15.214;2023-02-24T01:47:15;28.70;24.70
34815;DHT22;21030;53.912;15.214;2023-02-24T01:49:46;29.30;24.10
34815;DHT22;21030;53.912;15.214;2023-02-24T01:52:16;29.00;23.90
34815;DHT22;21030;53.912;15.214;2023-02-24T01:54:48;28.80;23.50
34815;DHT22;21030;53.912;15.214;2023-02-24T01:57:19;27.10;24.20
34815;DHT22;21030;53.912;15.214;2023-02-24T01:59:51;27.40;24.30
34815;DHT22;21030;53.912;15.214;2023-02-24T02:02:21;27.80;24.20
34815;DHT22;21030;53.912;15.214;2023-02-24T02:04:56;26.90;24.30
34815;DHT22;21030;53.912;15.214;2023-02-24T02:07:26;26.20;24.60
34815;DHT22;21030;53.912;15.214;2023-02-24T02:09:56;25.90;25.10
34815;DHT22;21030;53.912;15.214;2023-02-24T02:12:26;26.60;24.80
34815;DHT22;21030;53.912;15.214;2023-02-24T02:14:55;26.30;24.80
34815;DHT22;21030;53.912;15.214;2023-02-24T02:17:28;26.10;24.60
34815;DHT22;21030;53.912;15.214;2023-02-24T02:34:06;26.20;24.50
34815;DHT22;21030;53.912;15.214;2023-02-24T02:50:11;26.10;23.50
34815;DHT22;21030;53.912;15.214;2023-02-24T02:56:01;26.90;23.00
34815;DHT22;21030;53.912;15.214;2023-02-24T02:58:34;27.90;22.10
34815;DHT22;21030;53.912;15.214;2023-02-24T03:01:02;27.50;21.70
34815;DHT22;21030;53.912;15.214;2023-02-24T03:03:42;27.20;22.00
34815;DHT22;21030;53.912;15.214;2023-02-24T03:06:16;27.60;21.80
34815;DHT22;21030;53.912;15.214;2023-02-24T03:08:56;28.10;22.00
34815;DHT22;21030;53.912;15.214;2023-02-24T03:11:25;28.40;21.70
34815;DHT22;21030;53.912;15.214;2023-02-24T03:13:55;28.50;21.60
34815;DHT22;21030;53.912;15.214;2023-02-24T03:16:24;28.90;21.40
34815;DHT22;21030;53.912;15.214;2023-02-24T03:19:02;28.40;21.40
34815;DHT22;21030;53.912;15.214;2023-02-24T03:21:39;28.00;21.70
34815;DHT22;21030;53.912;15.214;2023-02-24T03:24:08;27.80;22.00
34815;DHT22;21030;53.912;15.214;2023-02-24T03:29:37;27.70;22.20
34815;DHT22;21030;53.912;15.214;2023-02-24T03:32:12;28.00;21.90
34815;DHT22;21030;53.912;15.214;2023-02-24T03:34:57;27.20;22.30
34815;DHT22;21030;53.912;15.214;2023-02-24T03:37:26;27.90;22.20
34815;DHT22;21030;53.912;15.214;2023-02-24T03:39:58;28.00;21.80
34815;DHT22;21030;53.912;15.214;2023-02-24T03:42:30;27.90;21.80
34815;DHT22;21030;53.912;15.214;2023-02-24T03:44:59;27.50;21.90
34815;DHT22;21030;53.912;15.214;2023-02-24T03:47:26;26.70;22.30
34815;DHT22;21030;53.912;15.214;2023-02-24T03:49:53;26.60;22.90
34815;DHT22;21030;53.912;15.214;2023-02-24T04:01:55;26.70;23.00
34815;DHT22;21030;53.912;15.214;2023-02-24T04:04:35;25.90;22.80
34815;DHT22;21030;53.912;15.214;2023-02-24T04:07:14;24.90;24.00
34815;DHT22;21030;53.912;15.214;2023-02-24T04:09:53;25.90;23.70
34815;DHT22;21030;53.912;15.214;2023-02-24T04:20:10;26.40;22.70
34815;DHT22;21030;53.912;15.214;2023-02-24T04:22:49;25.70;22.70
34815;DHT22;21030;53.912;15.214;2023-02-24T04:25:22;25.40;23.00
34815;DHT22;21030;53.912;15.214;2023-02-24T04:27:53;26.20;23.00
34815;DHT22;21030;53.912;15.214;2023-02-24T04:30:23;26.00;22.50
34815;DHT22;21030;53.912;15.214;2023-02-24T04:32:50;26.60;21.90
34815;DHT22;21030;53.912;15.214;2023-02-24T04:35:19;26.30;22.10
34815;DHT22;21030;53.912;15.214;2023-02-24T04:37:49;25.60;22.00
34815;DHT22;21030;53.912;15.214;2023-02-24T04:40:18;26.10;22.40
34815;DHT22;21030;53.912;15.214;2023-02-24T04:42:49;25.80;22.50
34815;DHT22;21030;53.912;15.214;2023-02-24T04:45:26;24.80;22.50
34815;DHT22;21030;53.912;15.214;2023-02-24T04:47:57;24.50;23.40
34815;DHT22;21030;53.912;15.214;2023-02-24T04:50:33;24.80;23.50
34815;DHT22;21030;53.912;15.214;2023-02-24T04:53:06;26.30;22.70
34815;DHT22;21030;53.912;15.214;2023-02-24T04:55:43;25.30;22.20
34815;DHT22;21030;53.912;15.214;2023-02-24T04:58:25;25.00;23.10
34815;DHT22;21030;53.912;15.214;2023-02-24T05:00:55;24.70;23.10
34815;DHT22;21030;53.912;15.214;2023-02-24T05:03:24;25.00;23.00
34815;DHT22;21030;53.912;15.214;2023-02-24T05:05:56;24.70;23.30
34815;DHT22;21030;53.912;15.214;2023-02-24T05:08:27;25.10;23.20
34815;DHT22;21030;53.912;15.214;2023-02-24T05:10:55;26.60;22.50
34815;DHT22;21030;53.912;15.214;2023-02-24T05:13:26;27.00;22.00
34815;DHT22;21030;53.912;15.214;2023-02-24T05:15:56;26.50;21.90
34815;DHT22;21030;53.912;15.214;2023-02-24T05:18:23;26.00;22.20
34815;DHT22;21030;53.912;15.214;2023-02-24T05:20:54;25.90;23.00
34815;DHT22;21030;53.912;15.214;2023-02-24T05:23:45;25.90;22.90
34815;DHT22;21030;53.912;15.214;2023-02-24T05:26:15;26.00;22.70
34815;DHT22;21030;53.912;15.214;2023-02-24T05:28:44;25.10;23.20
34815;DHT22;21030;53.912;15.214;2023-02-24T05:31:23;25.90;23.20
34815;DHT22;21030;53.912;15.214;2023-02-24T05:34:05;26.30;23.10
34815;DHT22;21030;53.912;15.214;2023-02-24T05:36:36;26.30;22.70
34815;DHT22;21030;53.912;15.214;2023-02-24T05:39:07;26.30;22.70
34815;DHT22;21030;53.912;15.214;2023-02-24T05:41:40;26.80;22.20
34815;DHT22;21030;53.912;15.214;2023-02-24T05:44:13;26.80;22.00
34815;DHT22;21030;53.912;15.214;2023-02-24T05:46:43;26.70;22.10
34815;DHT22;21030;53.912;15.214;2023-02-24T05:49:17;27.00;22.10
34815;DHT22;21030;53.912;15.214;2023-02-24T05:51:50;26.40;21.90
34815;DHT22;21030;53.912;15.214;2023-02-24T05:54:23;27.00;22.20
34815;DHT22;21030;53.912;15.214;2023-02-24T05:56:51;27.40;21.90
34815;DHT22;21030;53.912;15.214;2023-02-24T05:59:19;26.10;21.90
34815;DHT22;21030;53.912;15.214;2023-02-24T06:01:48;25.10;22.70
34815;DHT22;21030;53.912;15.214;2023-02-24T06:04:19;25.30;23.30
34815;DHT22;21030;53.912;15.214;2023-02-24T06:06:47;25.70;23.00
34815;DHT22;21030;53.912;15.214;2023-02-24T06:09:19;26.20;22.80
34815;DHT22;21030;53.912;15.214;2023-02-24T06:11:49;26.30;22.10
34815;DHT22;21030;53.912;15.214;2023-02-24T06:14:16;26.40;22.40
34815;DHT22;21030;53.912;15.214;2023-02-24T06:16:43;26.20;22.30
34815;DHT22;21030;53.912;15.214;2023-02-24T06:19:11;26.00;22.50
34815;DHT22;21030;53.912;15.214;2023-02-24T06:21:40;25.70;22.80
34815;DHT22;21030;53.912;15.214;2023-02-24T06:24:12;25.80;22.70
34815;DHT22;21030;53.912;15.214;2023-02-24T06:26:41;25.40;23.00
34815;DHT22;21030;53.912;15.214;2023-02-24T06:29:13;25.20;23.00
34815;DHT22;21030;53.912;15.214;2023-02-24T06:31:41;24.70;23.20
34815;DHT22;21030;53.912;15.214;2023-02-24T06:34:10;24.70;23.80
34815;DHT22;21030;53.912;15.214;2023-02-24T06:36:39;24.00;23.80
34815;DHT22;21030;53.912;15.214;2023-02-24T06:39:06;24.10;23.90
34815;DHT22;21030;53.912;15.214;2023-02-24T06:41:34;24.70;23.70
34815;DHT22;21030;53.912;15.214;2023-02-24T06:44:04;24.60;24.30
34815;DHT22;21030;53.912;15.214;2023-02-24T06:46:31;24.30;23.80
34815;DHT22;21030;53.912;15.214;2023-02-24T06:48:58;23.50;24.30
34815;DHT22;21030;53.912;15.214;2023-02-24T06:51:25;22.70;25.10
34815;DHT22;21030;53.912;15.214;2023-02-24T06:53:56;22.70;25.50
34815;DHT22;21030;53.912;15.214;2023-02-24T06:56:26;23.10;25.10
34815;DHT22;21030;53.912;15.214;2023-02-24T06:58:55;22.90;25.20
34815;DHT22;21030;53.912;15.214;2023-02-24T07:01:25;22.60;25.30
34815;DHT22;21030;53.912;15.214;2023-02-24T07:03:56;22.30;25.90
34815;DHT22;21030;53.912;15.214;2023-02-24T07:06:39;22.40;26.00
34815;DHT22;21030;53.912;15.214;2023-02-24T07:09:09;22.50;25.80
34815;DHT22;21030;53.912;15.214;2023-02-24T07:11:40;22.80;25.60
34815;DHT22;21030;53.912;15.214;2023-02-24T07:14:09;22.50;25.40
34815;DHT22;21030;53.912;15.214;2023-02-24T07:16:37;22.80;25.70
34815;DHT22;21030;53.912;15.214;2023-02-24T07:19:13;22.70;25.20
34815;DHT22;21030;53.912;15.214;2023-02-24T07:21:43;22.60;25.60
34815;DHT22;21030;53.912;15.214;2023-02-24T07:24:18;22.90;25.30
34815;DHT22;21030;53.912;15.214;2023-02-24T07:26:55;22.80;25.60
34815;DHT22;21030;53.912;15.214;2023-02-24T07:29:24;22.00;25.70
34815;DHT22;21030;53.912;15.214;2023-02-24T07:31:52;21.50;26.30
34815;DHT22;21030;53.912;15.214;2023-02-24T07:34:23;22.00;26.50
34815;DHT22;21030;53.912;15.214;2023-02-24T07:36:52;22.60;25.90
34815;DHT22;21030;53.912;15.214;2023-02-24T07:39:21;21.70;26.10
34815;DHT22;21030;53.912;15.214;2023-02-24T07:41:52;21.20;26.90
34815;DHT22;21030;53.912;15.214;2023-02-24T07:44:25;21.70;26.80
34815;DHT22;21030;53.912;15.214;2023-02-24T07:46:55;21.80;26.80
34815;DHT22;21030;53.912;15.214;2023-02-24T07:49:25;21.60;26.80
34815;DHT22;21030;53.912;15.214;2023-02-24T07:51:56;21.60;26.90
34815;DHT22;21030;53.912;15.214;2023-02-24T07:54:25;21.40;27.30
34815;DHT22;21030;53.912;15.214;2023-02-24T07:56:57;21.40;27.00
34815;DHT22;21030;53.912;15.214;2023-02-24T07:59:30;21.70;26.80
34815;DHT22;21030;53.912;15.214;2023-02-24T08:01:59;21.40;27.10
34815;DHT22;21030;53.912;15.214;2023-02-24T08:04:30;21.20;27.10
34815;DHT22;21030;53.912;15.214;2023-02-24T08:06:59;21.70;27.00
34815;DHT22;21030;53.912;15.214;2023-02-24T08:09:31;22.50;26.20
34815;DHT22;21030;53.912;15.214;2023-02-24T08:12:17;22.30;26.20
34815;DHT22;21030;53.912;15.214;2023-02-24T08:14:46;21.50;26.50
34815;DHT22;21030;53.912;15.214;2023-02-24T08:17:24;22.20;27.00
34815;DHT22;21030;53.912;15.214;2023-02-24T08:19:54;22.60;25.90
34815;DHT22;21030;53.912;15.214;2023-02-24T08:22:41;22.00;26.10
34815;DHT22;21030;53.912;15.214;2023-02-24T08:25:13;22.40;26.20
34815;DHT22;21030;53.912;15.214;2023-02-24T08:27:50;21.80;26.20
34815;DHT22;21030;53.912;15.214;2023-02-24T08:30:37;21.00;27.30
34815;DHT22;21030;53.912;15.214;2023-02-24T08:33:10;20.90;27.40
34815;DHT22;21030;53.912;15.214;2023-02-24T08:35:42;21.20;27.40
34815;DHT22;21030;53.912;15.214;2023-02-24T08:38:14;21.40;27.30
34815;DHT22;21030;53.912;15.214;2023-02-24T08:40:50;21.50;26.90
34815;DHT22;21030;53.912;15.214;2023-02-24T08:43:29;21.40;27.00
34815;DHT22;21030;53.912;15.214;2023-02-24T08:46:04;21.40;26.90
34815;DHT22;21030;53.912;15.214;2023-02-24T08:48:38;21.90;26.70
34815;DHT22;21030;53.912;15.214;2023-02-24T08:51:19;23.10;26.10
34815;DHT22;21030;53.912;15.214;2023-02-24T08:53:59;22.70;25.00
34815;DHT22;21030;53.912;15.214;2023-02-24T08:56:31;22.20;26.40
34815;DHT22;21030;53.912;15.214;2023-02-24T08:59:03;23.00;25.60
34815;DHT22;21030;53.912;15.214;2023-02-24T09:01:37;23.50;25.10
34815;DHT22;21030;53.912;15.214;2023-02-24T09:04:11;23.60;24.80
34815;DHT22;21030;53.912;15.214;2023-02-24T09:06:46;23.60;25.00
34815;DHT22;21030;53.912;15.214;2023-02-24T09:09:19;23.60;24.90
34815;DHT22;21030;53.912;15.214;2023-02-24T09:11:59;24.00;24.70
34815;DHT22;21030;53.912;15.214;2023-02-24T09:14:30;24.10;24.70
34815;DHT22;21030;53.912;15.214;2023-02-24T09:17:06;23.70;24.80
34815;DHT22;21030;53.912;15.214;2023-02-24T09:19:43;24.00;24.80
34815;DHT22;21030;53.912;15.214;2023-02-24T09:22:28;23.50;24.80
34815;DHT22;21030;53.912;15.214;2023-02-24T09:25:04;24.00;24.80
34815;DHT22;21030;53.912;15.214;2023-02-24T09:27:53;24.10;24.20
34815;DHT22;21030;53.912;15.214;2023-02-24T09:30:25;23.90;24.80
34815;DHT22;21030;53.912;15.214;2023-02-24T09:33:29;23.80;24.80
34815;DHT22;21030;53.912;15.214;2023-02-24T09:36:07;22.90;25.40
34815;DHT22;21030;53.912;15.214;2023-02-24T09:39:01;22.00;26.50
34815;DHT22;21030;53.912;15.214;2023-02-24T09:41:47;21.70;27.10
34815;DHT22;21030;53.912;15.214;2023-02-24T09:44:49;23.00;26.50
34815;DHT22;21030;53.912;15.214;2023-02-24T09:47:42;24.00;25.50
34815;DHT22;21030;53.912;15.214;2023-02-24T09:50:31;23.70;25.20
34815;DHT22;21030;53.912;15.214;2023-02-24T09:53:30;22.90;26.30
34815;DHT22;21030;53.912;15.214;2023-02-24T09:56:19;23.30;25.70
34815;DHT22;21030;53.912;15.214;2023-02-24T09:59:29;23.20;25.70
34815;DHT22;21030;53.912;15.214;2023-02-24T10:02:40;23.60;25.70
34815;DHT22;21030;53.912;15.214;2023-02-24T10:05:24;22.80;26.40
34815;DHT22;21030;53.912;15.214;2023-02-24T10:07:53;23.50;26.10
34815;DHT22;21030;53.912;15.214;2023-02-24T10:10:25;22.70;26.10
34815;DHT22;21030;53.912;15.214;2023-02-24T10:13:14;22.20;27.30
34815;DHT22;21030;53.912;15.214;2023-02-24T10:15:45;23.00;26.80
34815;DHT22;21030;53.912;15.214;2023-02-24T10:18:36;23.30;26.20
34815;DHT22;21030;53.912;15.214;2023-02-24T10:24:03;24.00;26.10
34815;DHT22;21030;53.912;15.214;2023-02-24T10:26:40;24.30;25.50
34815;DHT22;21030;53.912;15.214;2023-02-24T10:32:25;21.40;27.60
34815;DHT22;21030;53.912;15.214;2023-02-24T10:35:01;20.60;29.20
34815;DHT22;21030;53.912;15.214;2023-02-24T10:37:28;21.00;29.20
34815;DHT22;21030;53.912;15.214;2023-02-24T10:40:04;22.60;28.00
34815;DHT22;21030;53.912;15.214;2023-02-24T10:42:43;21.80;27.80
34815;DHT22;21030;53.912;15.214;2023-02-24T10:45:21;21.80;28.40
34815;DHT22;21030;53.912;15.214;2023-02-24T10:47:55;22.60;28.00
34815;DHT22;21030;53.912;15.214;2023-02-24T10:53:02;22.90;27.20
34815;DHT22;21030;53.912;15.214;2023-02-24T10:55:32;21.00;28.70
34815;DHT22;21030;53.912;15.214;2023-02-24T10:58:21;22.10;29.70
34815;DHT22;21030;53.912;15.214;2023-02-24T11:01:17;22.80;28.20
34815;DHT22;21030;53.912;15.214;2023-02-24T11:03:58;22.10;28.80
34815;DHT22;21030;53.912;15.214;2023-02-24T11:06:39;22.00;28.60
34815;DHT22;21030;53.912;15.214;2023-02-24T11:09:24;21.40;29.30
34815;DHT22;21030;53.912;15.214;2023-02-24T11:12:15;20.90;30.00
34815;DHT22;21030;53.912;15.214;2023-02-24T11:15:22;21.40;29.90
34815;DHT22;21030;53.912;15.214;2023-02-24T11:18:23;21.10;30.10
34815;DHT22;21030;53.912;15.214;2023-02-24T11:20:54;20.80;30.60
34815;DHT22;21030;53.912;15.214;2023-02-24T11:23:44;20.80;31.10
34815;DHT22;21030;53.912;15.214;2023-02-24T11:26:21;20.10;32.30
34815;DHT22;21030;53.912;15.214;2023-02-24T11:34:18;22.20;30.00
34815;DHT22;21030;53.912;15.214;2023-02-24T11:37:11;23.00;29.30
34815;DHT22;21030;53.912;15.214;2023-02-24T11:42:23;22.60;29.40
34815;DHT22;21030;53.912;15.214;2023-02-24T11:47:31;21.40;31.30
34815;DHT22;21030;53.912;15.214;2023-02-24T11:52:48;21.60;31.10
34815;DHT22;21030;53.912;15.214;2023-02-24T11:55:45;21.90;31.20
34815;DHT22;21030;53.912;15.214;2023-02-24T11:58:18;21.20;31.30
34815;DHT22;21030;53.912;15.214;2023-02-24T12:01:02;20.10;33.20
34815;DHT22;21030;53.912;15.214;2023-02-24T12:04:01;20.60;33.30
34815;DHT22;21030;53.912;15.214;2023-02-24T12:06:35;21.10;32.70
34815;DHT22;21030;53.912;15.214;2023-02-24T12:09:18;19.70;34.10
34815;DHT22;21030;53.912;15.214;2023-02-24T12:11:57;18.30;36.50
34815;DHT22;21030;53.912;15.214;2023-02-24T12:14:35;18.30;37.70
34815;DHT22;21030;53.912;15.214;2023-02-24T12:17:31;17.90;37.70
34815;DHT22;21030;53.912;15.214;2023-02-24T12:20:20;18.50;37.60
34815;DHT22;21030;53.912;15.214;2023-02-24T12:22:54;18.50;37.50
34815;DHT22;21030;53.912;15.214;2023-02-24T12:25:29;18.00;37.90
34815;DHT22;21030;53.912;15.214;2023-02-24T12:28:18;18.80;38.10
34815;DHT22;21030;53.912;15.214;2023-02-24T12:39:51;19.90;35.70
34815;DHT22;21030;53.912;15.214;2023-02-24T12:42:39;19.40;35.30
34815;DHT22;21030;53.912;15.214;2023-02-24T12:56:23;18.00;37.90
34815;DHT22;21030;53.912;15.214;2023-02-24T12:58:56;18.50;37.90
34815;DHT22;21030;53.912;15.214;2023-02-24T13:01:31;18.80;36.80
34815;DHT22;21030;53.912;15.214;2023-02-24T13:14:41;18.00;38.70
34815;DHT22;21030;53.912;15.214;2023-02-24T13:19:39;18.40;38.40
34815;DHT22;21030;53.912;15.214;2023-02-24T13:25:17;18.50;37.60
34815;DHT22;21030;53.912;15.214;2023-02-24T13:27:59;18.90;37.40
34815;DHT22;21030;53.912;15.214;2023-02-24T13:30:36;19.40;35.80
34815;DHT22;21030;53.912;15.214;2023-02-24T13:35:46;18.00;38.10
34815;DHT22;21030;53.912;15.214;2023-02-24T13:38:32;18.20;38.80
34815;DHT22;21030;53.912;15.214;2023-02-24T13:44:46;18.50;37.40
34815;DHT22;21030;53.912;15.214;2023-02-24T13:55:28;19.00;36.90
34815;DHT22;21030;53.912;15.214;2023-02-24T14:01:10;18.00;38.60
34815;DHT22;21030;53.912;15.214;2023-02-24T14:03:39;17.90;38.50
34815;DHT22;21030;53.912;15.214;2023-02-24T14:06:19;18.00;38.40
34815;DHT22;21030;53.912;15.214;2023-02-24T14:08:53;18.00;38.30
34815;DHT22;21030;53.912;15.214;2023-02-24T14:11:24;18.40;38.20
34815;DHT22;21030;53.912;15.214;2023-02-24T14:13:53;17.90;38.20
34815;DHT22;21030;53.912;15.214;2023-02-24T14:16:31;18.40;38.60
34815;DHT22;21030;53.912;15.214;2023-02-24T14:19:00;18.90;37.40
34815;DHT22;21030;53.912;15.214;2023-02-24T14:21:31;18.60;37.20
34815;DHT22;21030;53.912;15.214;2023-02-24T14:24:09;18.70;37.60
34815;DHT22;21030;53.912;15.214;2023-02-24T14:26:50;19.50;36.50
34815;DHT22;21030;53.912;15.214;2023-02-24T14:29:44;19.70;35.20
34815;DHT22;21030;53.912;15.214;2023-02-24T14:32:18;18.80;36.30
34815;DHT22;21030;53.912;15.214;2023-02-24T14:34:47;18.80;36.70
34815;DHT22;21030;53.912;15.214;2023-02-24T14:37:14;18.60;37.20
34815;DHT22;21030;53.912;15.214;2023-02-24T14:39:55;18.70;37.20
34815;DHT22;21030;53.912;15.214;2023-02-24T14:42:24;18.20;37.70
34815;DHT22;21030;53.912;15.214;2023-02-24T14:44:54;18.20;37.80
34815;DHT22;21030;53.912;15.214;2023-02-24T14:47:25;18.80;37.50
34815;DHT22;21030;53.912;15.214;2023-02-24T14:49:58;18.80;36.70
34815;DHT22;21030;53.912;15.214;2023-02-24T14:52:35;18.80;36.90
34815;DHT22;21030;53.912;15.214;2023-02-24T14:55:14;18.90;37.50
34815;DHT22;21030;53.912;15.214;2023-02-24T14:58:10;19.70;35.80
34815;DHT22;21030;53.912;15.214;2023-02-24T15:00:48;19.60;35.20
34815;DHT22;21030;53.912;15.214;2023-02-24T15:03:23;20.20;34.80
34815;DHT22;21030;53.912;15.214;2023-02-24T15:05:57;20.50;34.70
34815;DHT22;21030;53.912;15.214;2023-02-24T15:10:55;20.40;34.50
34815;DHT22;21030;53.912;15.214;2023-02-24T15:13:32;20.60;33.90
34815;DHT22;21030;53.912;15.214;2023-02-24T15:16:09;19.80;34.70
34815;DHT22;21030;53.912;15.214;2023-02-24T15:18:39;20.10;34.80
34815;DHT22;21030;53.912;15.214;2023-02-24T15:21:27;19.60;35.00
34815;DHT22;21030;53.912;15.214;2023-02-24T15:24:03;19.60;35.20
34815;DHT22;21030;53.912;15.214;2023-02-24T15:26:39;19.80;36.00
34815;DHT22;21030;53.912;15.214;2023-02-24T15:29:17;20.00;35.20
34815;DHT22;21030;53.912;15.214;2023-02-24T15:31:46;20.70;34.10
34815;DHT22;21030;53.912;15.214;2023-02-24T15:34:23;20.90;34.20
34815;DHT22;21030;53.912;15.214;2023-02-24T15:36:55;20.60;33.60
34815;DHT22;21030;53.912;15.214;2023-02-24T15:39:26;20.60;33.40
34815;DHT22;21030;53.912;15.214;2023-02-24T15:42:12;20.30;34.30
34815;DHT22;21030;53.912;15.214;2023-02-24T15:44:57;20.20;34.60
34815;DHT22;21030;53.912;15.214;2023-02-24T15:47:44;20.30;34.00
34815;DHT22;21030;53.912;15.214;2023-02-24T15:50:12;19.70;34.60
34815;DHT22;21030;53.912;15.214;2023-02-24T15:52:40;20.10;34.90
34815;DHT22;21030;53.912;15.214;2023-02-24T15:55:10;19.50;35.20
34815;DHT22;21030;53.912;15.214;2023-02-24T15:57:40;19.20;36.40
34815;DHT22;21030;53.912;15.214;2023-02-24T16:00:10;20.40;35.50
34815;DHT22;21030;53.912;15.214;2023-02-24T16:02:40;20.50;34.00
34815;DHT22;21030;53.912;15.214;2023-02-24T16:05:14;20.60;34.40
34815;DHT22;21030;53.912;15.214;2023-02-24T16:07:45;20.80;33.40
34815;DHT22;21030;53.912;15.214;2023-02-24T16:10:25;20.50;34.00
34815;DHT22;21030;53.912;15.214;2023-02-24T16:12:58;20.40;34.00
34815;DHT22;21030;53.912;15.214;2023-02-24T16:15:32;20.80;33.50
34815;DHT22;21030;53.912;15.214;2023-02-24T16:18:00;20.10;34.30
34815;DHT22;21030;53.912;15.214;2023-02-24T16:20:29;19.50;35.80
34815;DHT22;21030;53.912;15.214;2023-02-24T16:23:04;19.90;35.50
34815;DHT22;21030;53.912;15.214;2023-02-24T16:25:42;19.70;35.30
34815;DHT22;21030;53.912;15.214;2023-02-24T16:28:18;20.10;35.20
34815;DHT22;21030;53.912;15.214;2023-02-24T16:30:47;19.80;34.70
34815;DHT22;21030;53.912;15.214;2023-02-24T16:33:17;19.60;35.40
34815;DHT22;21030;53.912;15.214;2023-02-24T16:35:44;19.10;35.80
34815;DHT22;21030;53.912;15.214;2023-02-24T16:38:16;19.00;36.60
34815;DHT22;21030;53.912;15.214;2023-02-24T16:40:45;19.70;36.10
34815;DHT22;21030;53.912;15.214;2023-02-24T16:43:13;19.10;35.80
34815;DHT22;21030;53.912;15.214;2023-02-24T16:45:42;18.40;36.90
34815;DHT22;21030;53.912;15.214;2023-02-24T16:48:24;18.80;37.10
34815;DHT22;21030;53.912;15.214;2023-02-24T16:50:51;18.90;36.70
34815;DHT22;21030;53.912;15.214;2023-02-24T16:53:21;18.90;37.10
34815;DHT22;21030;53.912;15.214;2023-02-24T16:55:49;18.20;37.60
34815;DHT22;21030;53.912;15.214;2023-02-24T16:58:17;18.40;38.30
34815;DHT22;21030;53.912;15.214;2023-02-24T17:00:47;18.80;37.80
34815;DHT22;21030;53.912;15.214;2023-02-24T17:03:57;19.20;37.40
34815;DHT22;21030;53.912;15.214;2023-02-24T17:06:16;19.70;36.10
34815;DHT22;21030;53.912;15.214;2023-02-24T17:08:47;20.10;35.30
34815;DHT22;21030;53.912;15.214;2023-02-24T17:11:17;20.10;34.90
34815;DHT22;21030;53.912;15.214;2023-02-24T17:13:45;19.50;35.50
34815;DHT22;21030;53.912;15.214;2023-02-24T17:16:12;18.90;36.70
34815;DHT22;21030;53.912;15.214;2023-02-24T17:18:40;19.40;36.80
34815;DHT22;21030;53.912;15.214;2023-02-24T17:21:13;19.90;35.50
34815;DHT22;21030;53.912;15.214;2023-02-24T17:23:40;19.90;35.40
34815;DHT22;21030;53.912;15.214;2023-02-24T17:26:14;19.60;36.00
34815;DHT22;21030;53.912;15.214;2023-02-24T17:28:42;19.80;35.50
34815;DHT22;21030;53.912;15.214;2023-02-24T17:31:09;19.60;36.00
34815;DHT22;21030;53.912;15.214;2023-02-24T17:33:39;19.40;36.10
34815;DHT22;21030;53.912;15.214;2023-02-24T17:36:07;19.10;36.80
34815;DHT22;21030;53.912;15.214;2023-02-24T17:38:34;18.70;37.20
34815;DHT22;21030;53.912;15.214;2023-02-24T17:41:01;18.90;37.70
34815;DHT22;21030;53.912;15.214;2023-02-24T17:43:29;18.40;38.00
34815;DHT22;21030;53.912;15.214;2023-02-24T17:45:56;18.90;37.80
34815;DHT22;21030;53.912;15.214;2023-02-24T17:48:23;19.50;36.80
34815;DHT22;21030;53.912;15.214;2023-02-24T17:50:50;19.70;36.10
34815;DHT22;21030;53.912;15.214;2023-02-24T17:53:19;19.50;35.90
34815;DHT22;21030;53.912;15.214;2023-02-24T17:55:46;18.80;37.30
34815;DHT22;21030;53.912;15.214;2023-02-24T17:58:28;19.20;37.10
34815;DHT22;21030;53.912;15.214;2023-02-24T18:00:55;19.30;37.10
34815;DHT22;21030;53.912;15.214;2023-02-24T18:03:23;19.30;36.40
34815;DHT22;21030;53.912;15.214;2023-02-24T18:06:01;18.70;37.20
34815;DHT22;21030;53.912;15.214;2023-02-24T18:08:31;18.90;38.10
34815;DHT22;21030;53.912;15.214;2023-02-24T18:10:59;19.20;36.90